Time;durP1;ratioP1;P1;durP2;ratioP2;P2;SDS_P1;SDS_P2;PMS_P1;PMS_P2;Temp;Humidity;BMP_temperature;BMP_pressure;BME280_temperature;BME280_humidity;BME280_pressure;Samples;Min_cycle;Max_cycle;Signal;HPM_P1;HPM_P2
2022/12/30 00:00:36;;;;;;;19.85;4.95;;;6.60;99.90;;;;;;4810118;29;20042;-64
2022/12/30 00:03:02;;;;;;;20.27;4.85;;;6.50;99.90;;;;;;4808017;29;20065;-63
2022/12/30 00:05:28;;;;;;;23.50;4.90;;;6.50;99.90;;;;;;4810495;29;20038;-64
2022/12/30 00:07:53;;;;;;;23.70;4.85;;;6.60;99.90;;;;;;4809487;29;20047;-64
2022/12/30 00:10:19;;;;;;;17.75;4.80;;;6.50;99.90;;;;;;4809658;29;20042;-64
2022/12/30 00:35:10;;;;;;;22.10;5.47;;;6.30;99.90;;;;;;4805834;29;20487;-63
2022/12/30 00:37:35;;;;;;;16.85;4.40;;;6.20;99.90;;;;;;4807492;29;20395;-63
2022/12/30 00:40:01;;;;;;;16.52;4.43;;;6.30;99.90;;;;;;4806582;29;20107;-63
2022/12/30 00:45:11;;;;;;;17.65;4.22;;;6.20;99.90;;;;;;4805811;29;20467;-62
2022/12/30 00:47:36;;;;;;;14.15;4.45;;;6.20;99.90;;;;;;4806344;29;20042;-62
2022/12/30 00:58:14;;;;;;;17.25;4.22;;;6.20;99.90;;;;;;4807686;29;20051;-64
2022/12/30 01:00:40;;;;;;;16.83;4.50;;;6.10;99.90;;;;;;4806616;29;20051;-62
2022/12/30 01:03:06;;;;;;;15.30;4.30;;;6.20;99.90;;;;;;4786302;29;20054;-63
2022/12/30 01:05:38;;;;;;;15.43;4.07;;;6.10;99.90;;;;;;4805827;29;20046;-63
2022/12/30 01:08:04;;;;;;;22.15;4.43;;;6.10;99.90;;;;;;4803979;29;20030;-63
2022/12/30 01:10:31;;;;;;;19.30;4.25;;;6.10;99.90;;;;;;4807618;29;20053;-64
2022/12/30 01:12:56;;;;;;;15.20;4.22;;;6.00;99.90;;;;;;4807571;29;20457;-62
2022/12/30 01:15:22;;;;;;;15.82;4.28;;;6.10;99.90;;;;;;4807055;29;20046;-62
2022/12/30 01:17:48;;;;;;;21.48;4.93;;;6.00;99.90;;;;;;4807206;29;20054;-62
2022/12/30 01:20:13;;;;;;;16.42;4.63;;;6.00;99.90;;;;;;4816770;29;20114;-63
2022/12/30 01:22:39;;;;;;;17.00;4.35;;;5.90;99.90;;;;;;4809197;29;20132;-63
2022/12/30 01:25:05;;;;;;;15.55;4.95;;;5.90;99.90;;;;;;4825874;29;20154;-63
2022/12/30 01:27:32;;;;;;;22.05;4.95;;;6.00;99.90;;;;;;4825269;29;20046;-63
2022/12/30 01:30:04;;;;;;;18.15;4.40;;;5.90;99.90;;;;;;4828633;29;20058;-64
2022/12/30 01:32:31;;;;;;;22.98;4.82;;;5.90;99.90;;;;;;4826402;29;20048;-63
2022/12/30 01:35:03;;;;;;;21.02;4.65;;;5.90;99.90;;;;;;4825250;29;20043;-62
2022/12/30 01:37:29;;;;;;;21.50;5.20;;;5.90;99.90;;;;;;4818149;29;20042;-63
2022/12/30 01:40:04;;;;;;;21.77;5.72;;;5.90;99.90;;;;;;4824828;29;20057;-63
2022/12/30 01:42:35;;;;;;;19.67;4.40;;;5.90;99.90;;;;;;4826245;29;20042;-63
2022/12/30 01:45:20;;;;;;;16.58;4.78;;;5.80;99.90;;;;;;4825402;29;20121;-64
2022/12/30 01:47:59;;;;;;;21.20;4.78;;;5.70;99.90;;;;;;4807347;29;20046;-62
2022/12/30 01:50:35;;;;;;;21.50;4.47;;;5.80;99.90;;;;;;4824905;29;20050;-62
2022/12/30 01:53:06;;;;;;;20.35;4.65;;;5.80;99.90;;;;;;4820157;29;20413;-62
2022/12/30 01:55:39;;;;;;;21.30;4.63;;;5.90;99.90;;;;;;4809394;29;20359;-64
2022/12/30 01:58:10;;;;;;;18.17;4.28;;;5.80;99.90;;;;;;4825017;29;20070;-63
2022/12/30 02:00:36;;;;;;;17.80;4.65;;;6.00;99.90;;;;;;4808198;29;20146;-63
2022/12/30 02:03:02;;;;;;;20.35;4.22;;;5.80;99.90;;;;;;4824540;29;20127;-64
2022/12/30 02:05:31;;;;;;;18.92;4.40;;;5.90;99.90;;;;;;4824537;29;20464;-63
2022/12/30 02:08:11;;;;;;;19.27;4.40;;;5.80;99.90;;;;;;4808114;29;20495;-64
2022/12/30 02:10:38;;;;;;;17.55;4.78;;;5.90;99.90;;;;;;4823622;29;20047;-63
2022/12/30 02:13:04;;;;;;;16.83;4.43;;;5.80;99.90;;;;;;4824242;29;20051;-62
2022/12/30 02:15:42;;;;;;;21.15;4.30;;;5.80;99.90;;;;;;4824032;29;20046;-62
2022/12/30 02:18:17;;;;;;;17.45;3.97;;;5.70;99.90;;;;;;4823219;29;20050;-62
2022/12/30 02:20:48;;;;;;;18.15;4.28;;;5.80;99.90;;;;;;4822179;29;20089;-62
2022/12/30 02:23:41;;;;;;;22.67;4.40;;;5.70;99.90;;;;;;4824007;29;20206;-63
2022/12/30 02:26:16;;;;;;;15.57;3.78;;;5.80;99.90;;;;;;4819128;29;20046;-63
2022/12/30 02:29:09;;;;;;;18.75;4.88;;;5.80;99.90;;;;;;4824126;29;20475;-64
2022/12/30 02:31:52;;;;;;;22.17;4.15;;;5.80;99.90;;;;;;4807607;29;20054;-63
2022/12/30 02:34:43;;;;;;;17.92;4.90;;;5.70;99.90;;;;;;4805110;29;20141;-64
2022/12/30 02:37:40;;;;;;;16.38;2.60;;;5.80;99.90;;;;;;4806625;29;20051;-63
2022/12/30 02:44:36;;;;;;;16.23;4.15;;;5.80;99.90;;;;;;4822982;29;20046;-62
2022/12/30 02:46:08;;;;;;;19.23;4.22;;;5.70;99.90;;;;;;4824084;29;20062;-63
2022/12/30 02:48:36;;;;;;;18.40;4.53;;;5.80;99.90;;;;;;4824106;29;20061;-62
2022/12/30 02:53:48;;;;;;;16.85;3.97;;;5.60;99.90;;;;;;4803752;29;20401;-63
2022/12/30 02:56:14;;;;;;;21.30;4.25;;;5.70;99.90;;;;;;4809470;29;20038;-64
2022/12/30 02:58:48;;;;;;;14.77;3.72;;;5.70;99.90;;;;;;4812460;29;20038;-62
2022/12/30 03:04:40;;;;;;;19.65;4.40;;;5.70;99.90;;;;;;4806052;29;20083;-62
2022/12/30 03:07:30;;;;;;;15.68;4.10;;;5.50;99.90;;;;;;4821831;29;20038;-63
2022/12/30 03:13:25;;;;;;;19.45;4.15;;;5.50;99.90;;;;;;4823748;29;20042;-62
2022/12/30 03:16:13;;;;;;;16.77;3.85;;;5.60;99.90;;;;;;4807222;29;20042;-64
2022/12/30 03:18:39;;;;;;;18.27;3.97;;;5.60;99.90;;;;;;4807786;29;20133;-63
2022/12/30 03:21:08;;;;;;;17.17;4.32;;;5.40;99.90;;;;;;4803877;29;20144;-63
2022/12/30 03:29:10;;;;;;;17.63;4.53;;;5.40;99.90;;;;;;4808244;29;20063;-64
2022/12/30 03:31:36;;;;;;;16.23;2.60;;;5.40;99.90;;;;;;4804651;29;20043;-63
2022/12/30 03:34:01;;;;;;;19.05;4.15;;;5.40;99.90;;;;;;4807901;29;20479;-64
2022/12/30 03:36:31;;;;;;;14.85;4.32;;;5.40;99.90;;;;;;4810253;29;20480;-62
2022/12/30 03:39:09;;;;;;;18.77;3.95;;;5.30;99.90;;;;;;4780636;29;20054;-61
2022/12/30 03:41:35;;;;;;;16.27;3.97;;;5.40;99.90;;;;;;4807473;29;20050;-62
2022/12/30 03:44:01;;;;;;;15.55;4.03;;;5.40;99.90;;;;;;4808755;29;20121;-64
2022/12/30 03:46:33;;;;;;;15.18;3.78;;;5.50;99.90;;;;;;4805213;29;20483;-62
2022/12/30 03:48:59;;;;;;;18.50;3.80;;;5.30;99.90;;;;;;4807900;29;20053;-62
2022/12/30 03:51:25;;;;;;;13.00;3.00;;;5.30;99.90;;;;;;4807926;29;20129;-63
2022/12/30 03:53:51;;;;;;;15.82;4.30;;;5.40;99.90;;;;;;4807528;29;20107;-64
2022/12/30 03:56:16;;;;;;;19.95;2.92;;;5.30;99.90;;;;;;4812008;29;20066;-63
2022/12/30 03:58:42;;;;;;;13.48;3.72;;;5.40;99.90;;;;;;4792287;29;20035;-64
2022/12/30 04:01:08;;;;;;;16.17;3.70;;;5.30;99.90;;;;;;4808784;29;20047;-64
2022/12/30 04:03:33;;;;;;;14.00;3.90;;;5.30;99.90;;;;;;4807777;29;20074;-63
2022/12/30 04:05:59;;;;;;;14.18;3.55;;;5.30;99.90;;;;;;4807236;29;20047;-64
2022/12/30 04:08:25;;;;;;;17.52;4.15;;;5.10;99.90;;;;;;4807263;29;20502;-63
2022/12/30 04:10:51;;;;;;;20.20;3.75;;;5.20;99.90;;;;;;4807076;29;20047;-64
2022/12/30 04:13:16;;;;;;;14.02;3.83;;;5.10;99.90;;;;;;4807469;29;20053;-64
2022/12/30 04:15:47;;;;;;;16.25;4.35;;;5.10;99.90;;;;;;4808141;29;20376;-64
2022/12/30 04:18:12;;;;;;;11.30;2.85;;;5.00;99.90;;;;;;4792351;29;20047;-62
2022/12/30 04:20:38;;;;;;;15.25;2.78;;;5.00;99.90;;;;;;4807466;29;20448;-63
2022/12/30 04:23:03;;;;;;;13.57;3.83;;;4.90;99.90;;;;;;4807147;29;20461;-63
2022/12/30 04:25:29;;;;;;;16.67;4.65;;;5.00;99.90;;;;;;4807396;29;20062;-63
2022/12/30 04:27:55;;;;;;;15.63;4.00;;;4.90;99.90;;;;;;4807376;29;20043;-63
2022/12/30 04:30:20;;;;;;;12.23;3.45;;;4.80;99.90;;;;;;4806978;29;20476;-63
2022/12/30 04:32:46;;;;;;;12.13;3.80;;;4.90;99.90;;;;;;4807334;29;20097;-63
2022/12/30 04:35:11;;;;;;;16.98;4.72;;;4.90;99.90;;;;;;4795521;29;20043;-65
2022/12/30 04:37:37;;;;;;;17.10;5.25;;;4.70;99.90;;;;;;4807396;29;20042;-62
2022/12/30 04:40:03;;;;;;;17.02;4.60;;;4.80;99.90;;;;;;4808038;29;20116;-64
2022/12/30 04:42:28;;;;;;;15.52;5.00;;;4.70;99.90;;;;;;4807176;29;20050;-63
2022/12/30 04:44:54;;;;;;;13.02;3.05;;;4.70;99.90;;;;;;4804161;29;20479;-62
2022/12/30 04:47:19;;;;;;;16.38;4.40;;;4.60;99.90;;;;;;4811144;29;20051;-62
2022/12/30 04:49:45;;;;;;;18.35;4.55;;;4.70;99.90;;;;;;4812058;29;20069;-62
2022/12/30 04:52:11;;;;;;;19.20;3.65;;;4.60;99.90;;;;;;4807191;29;20038;-62
2022/12/30 04:54:36;;;;;;;14.73;4.60;;;4.60;99.90;;;;;;4807029;29;20074;-63
2022/12/30 04:57:02;;;;;;;13.88;4.07;;;4.50;99.90;;;;;;4808484;29;20050;-62
2022/12/30 04:59:27;;;;;;;16.55;4.35;;;4.60;99.90;;;;;;4804393;29;20047;-64
2022/12/30 05:01:53;;;;;;;10.60;3.47;;;4.60;99.90;;;;;;4807585;29;20372;-64
2022/12/30 05:04:19;;;;;;;20.58;4.95;;;4.60;99.90;;;;;;4807604;29;20441;-62
2022/12/30 05:06:44;;;;;;;16.05;4.25;;;4.60;99.90;;;;;;4807692;29;20373;-63
2022/12/30 05:09:10;;;;;;;12.82;3.03;;;4.60;99.90;;;;;;4807489;29;20043;-62
2022/12/30 05:11:35;;;;;;;15.13;4.50;;;4.50;99.90;;;;;;4807175;29;20050;-62
2022/12/30 05:14:01;;;;;;;14.00;4.03;;;4.50;99.90;;;;;;4807915;29;20039;-62
2022/12/30 05:16:26;;;;;;;14.48;3.20;;;4.60;99.90;;;;;;4807427;29;20481;-63
2022/12/30 05:18:52;;;;;;;13.27;4.15;;;4.60;99.90;;;;;;4807745;29;20043;-64
2022/12/30 05:21:17;;;;;;;11.65;2.58;;;4.60;99.90;;;;;;4824569;29;20058;-62
2022/12/30 05:26:27;;;;;;;11.07;2.63;;;4.60;99.90;;;;;;4820116;29;20046;-62
2022/12/30 05:28:52;;;;;;;18.38;4.55;;;4.50;99.90;;;;;;4825791;29;20456;-62
2022/12/30 05:31:19;;;;;;;13.88;2.90;;;4.50;99.90;;;;;;4823351;29;20492;-63
2022/12/30 05:33:46;;;;;;;16.08;4.40;;;4.40;99.90;;;;;;4825456;29;20046;-62
2022/12/30 05:36:14;;;;;;;17.50;4.22;;;4.50;99.90;;;;;;4825352;29;20046;-64
2022/12/30 05:38:45;;;;;;;13.52;3.17;;;4.50;99.90;;;;;;4823862;29;20388;-63
2022/12/30 05:41:11;;;;;;;15.73;4.20;;;4.50;99.90;;;;;;4819985;29;20460;-63
2022/12/30 05:43:37;;;;;;;15.90;4.35;;;4.60;99.90;;;;;;4817475;29;20039;-62
2022/12/30 05:46:02;;;;;;;11.73;2.30;;;4.40;99.90;;;;;;4806377;29;20046;-63
2022/12/30 05:48:28;;;;;;;15.38;3.88;;;4.50;99.90;;;;;;4820326;29;20038;-63
2022/12/30 05:50:54;;;;;;;15.38;2.30;;;4.50;99.90;;;;;;4817633;29;20057;-63
2022/12/30 05:53:20;;;;;;;18.77;4.28;;;4.50;99.90;;;;;;4822766;29;20085;-63
2022/12/30 05:55:45;;;;;;;16.10;3.72;;;4.50;99.90;;;;;;4821416;29;20046;-63
2022/12/30 05:58:12;;;;;;;14.63;3.38;;;4.40;99.90;;;;;;4817432;29;20057;-63
2022/12/30 06:00:38;;;;;;;14.63;4.05;;;4.50;99.90;;;;;;4822143;29;20050;-62
2022/12/30 06:03:04;;;;;;;10.82;3.60;;;4.50;99.90;;;;;;4819142;29;20111;-62
2022/12/30 06:05:31;;;;;;;12.15;2.78;;;4.50;99.90;;;;;;4821638;29;20545;-63
2022/12/30 06:07:56;;;;;;;15.32;3.75;;;4.40;99.90;;;;;;4818544;29;20042;-63
2022/12/30 06:10:22;;;;;;;12.32;2.83;;;4.50;99.90;;;;;;4822481;29;20030;-63
2022/12/30 06:12:47;;;;;;;16.98;4.15;;;4.40;99.90;;;;;;4819484;29;20046;-64
2022/12/30 06:15:13;;;;;;;16.45;4.00;;;4.50;99.90;;;;;;4816867;29;20103;-64
2022/12/30 06:17:39;;;;;;;16.35;4.15;;;4.50;99.90;;;;;;4805620;29;20039;-62
2022/12/30 06:20:05;;;;;;;8.50;2.85;;;4.50;99.90;;;;;;4806066;29;20156;-62
2022/12/30 06:22:30;;;;;;;17.50;3.97;;;4.60;99.90;;;;;;4819272;29;20448;-63
2022/12/30 06:24:56;;;;;;;13.68;3.72;;;4.60;99.90;;;;;;4820250;29;20057;-62
2022/12/30 06:27:21;;;;;;;11.55;3.47;;;4.60;99.90;;;;;;4818352;29;20453;-62
2022/12/30 06:29:48;;;;;;;13.70;3.63;;;4.60;99.90;;;;;;4821349;29;20137;-64
2022/12/30 06:32:14;;;;;;;10.05;2.50;;;4.60;99.90;;;;;;4824152;29;20058;-62
2022/12/30 06:34:39;;;;;;;17.60;4.10;;;4.50;99.90;;;;;;4827482;29;20159;-62
2022/12/30 06:37:05;;;;;;;14.25;4.38;;;4.70;99.90;;;;;;4793270;29;20042;-62
2022/12/30 06:39:31;;;;;;;14.95;2.85;;;4.60;99.90;;;;;;4824337;29;20058;-64
2022/12/30 06:41:56;;;;;;;15.73;4.05;;;4.50;99.90;;;;;;4824637;29;20097;-63
2022/12/30 06:44:22;;;;;;;15.18;3.90;;;4.50;99.90;;;;;;4820142;29;20050;-62
2022/12/30 06:46:47;;;;;;;14.15;3.25;;;4.50;99.90;;;;;;4808160;29;20059;-62
2022/12/30 06:49:13;;;;;;;15.45;4.15;;;4.60;99.90;;;;;;4824277;29;20043;-64
2022/12/30 06:51:39;;;;;;;15.93;4.03;;;4.60;99.90;;;;;;4825360;29;20038;-65
2022/12/30 06:54:05;;;;;;;14.43;3.33;;;4.60;99.90;;;;;;4805618;29;20073;-62
2022/12/30 06:56:30;;;;;;;15.77;3.85;;;4.60;99.90;;;;;;4821497;29;20457;-62
2022/12/30 06:58:56;;;;;;;20.88;4.70;;;4.50;99.90;;;;;;4815831;29;20064;-62
2022/12/30 07:01:21;;;;;;;15.77;4.53;;;4.60;99.90;;;;;;4813852;29;20114;-62
2022/12/30 07:03:47;;;;;;;14.57;3.33;;;4.50;99.90;;;;;;4814345;29;20046;-62
2022/12/30 07:06:12;;;;;;;18.42;4.32;;;4.60;99.90;;;;;;4815904;29;20046;-62
2022/12/30 07:08:38;;;;;;;15.20;4.15;;;4.50;99.90;;;;;;4830599;29;20053;-62
2022/12/30 07:11:03;;;;;;;16.50;3.03;;;4.60;99.90;;;;;;4830303;29;20050;-62
2022/12/30 07:13:29;;;;;;;13.07;2.65;;;4.50;99.90;;;;;;4814169;29;20056;-62
2022/12/30 07:15:55;;;;;;;15.60;4.30;;;4.50;99.90;;;;;;4813708;29;20062;-62
2022/12/30 07:18:21;;;;;;;24.83;5.32;;;4.40;99.90;;;;;;4814519;29;20042;-63
2022/12/30 07:20:46;;;;;;;15.07;4.38;;;4.60;99.90;;;;;;4814723;29;20062;-64
2022/12/30 07:23:12;;;;;;;12.48;2.50;;;4.50;99.90;;;;;;4816146;29;20042;-65
2022/12/30 07:25:37;;;;;;;12.50;3.90;;;4.40;99.90;;;;;;4832360;29;20069;-62
2022/12/30 07:28:04;;;;;;;15.82;4.40;;;4.50;99.90;;;;;;4814466;29;20079;-62
2022/12/30 07:30:31;;;;;;;13.65;2.65;;;4.50;99.90;;;;;;4794009;29;20050;-63
2022/12/30 07:32:57;;;;;;;19.88;4.80;;;4.40;99.90;;;;;;4799180;29;20476;-62
2022/12/30 07:35:22;;;;;;;18.30;4.40;;;4.40;99.90;;;;;;4814790;29;20042;-64
2022/12/30 07:37:49;;;;;;;13.30;3.40;;;4.50;99.90;;;;;;4813883;29;20346;-63
2022/12/30 07:40:15;;;;;;;15.52;4.28;;;4.50;99.90;;;;;;4814223;29;20054;-62
2022/12/30 07:42:41;;;;;;;14.88;2.78;;;4.60;99.90;;;;;;4814323;29;20380;-62
2022/12/30 07:45:07;;;;;;;12.93;3.13;;;4.40;99.90;;;;;;4814326;29;20464;-62
2022/12/30 07:47:33;;;;;;;17.17;4.38;;;4.40;99.90;;;;;;4813570;29;20053;-63
2022/12/30 07:50:00;;;;;;;17.52;4.47;;;4.50;99.90;;;;;;4813854;29;20043;-63
2022/12/30 07:52:26;;;;;;;14.10;4.40;;;4.60;99.90;;;;;;4829563;29;20091;-64
2022/12/30 07:54:52;;;;;;;13.80;2.90;;;4.60;99.90;;;;;;4813389;29;20042;-65
2022/12/30 07:57:18;;;;;;;14.60;4.20;;;4.60;99.90;;;;;;4795922;29;20038;-63
2022/12/30 07:59:45;;;;;;;14.68;3.67;;;4.50;99.90;;;;;;4813403;29;20092;-62
2022/12/30 08:02:11;;;;;;;12.15;3.03;;;4.60;99.90;;;;;;4812765;29;20475;-63
2022/12/30 08:04:37;;;;;;;15.00;4.50;;;4.60;99.90;;;;;;4814015;29;20042;-63
2022/12/30 08:07:04;;;;;;;12.88;4.57;;;4.60;99.90;;;;;;4813140;29;20132;-63
2022/12/30 08:09:30;;;;;;;16.15;3.45;;;4.70;99.90;;;;;;4828246;29;20056;-63
2022/12/30 08:11:55;;;;;;;21.65;4.82;;;4.60;99.90;;;;;;4810571;29;20038;-63
2022/12/30 08:14:21;;;;;;;17.33;4.13;;;4.80;99.90;;;;;;4810625;29;20057;-62
2022/12/30 08:16:46;;;;;;;15.13;4.60;;;4.80;99.90;;;;;;4818683;29;20129;-62
2022/12/30 08:19:12;;;;;;;17.60;3.60;;;4.80;99.90;;;;;;4810122;29;20046;-64
2022/12/30 08:21:38;;;;;;;15.98;5.00;;;4.80;99.90;;;;;;4810844;29;20054;-65
2022/12/30 08:24:04;;;;;;;19.13;5.63;;;4.90;99.90;;;;;;4819607;29;20118;-64
2022/12/30 08:26:30;;;;;;;12.23;3.03;;;4.90;99.90;;;;;;4823047;29;20049;-63
2022/12/30 08:28:55;;;;;;;15.70;4.35;;;4.80;99.90;;;;;;4834723;29;20046;-63
2022/12/30 08:31:26;;;;;;;18.92;5.78;;;4.90;99.90;;;;;;4808649;29;20138;-63
2022/12/30 08:33:52;;;;;;;12.18;3.20;;;5.00;99.90;;;;;;4826923;29;20053;-63
2022/12/30 08:36:22;;;;;;;14.77;4.43;;;4.90;99.90;;;;;;4813078;29;20074;-63
2022/12/30 08:38:50;;;;;;;20.10;4.63;;;4.90;99.90;;;;;;4810719;29;20057;-62
2022/12/30 08:41:23;;;;;;;18.85;3.25;;;5.00;99.90;;;;;;4825564;29;20495;-64
2022/12/30 08:43:50;;;;;;;17.35;4.50;;;5.10;99.90;;;;;;4807873;29;20046;-64
2022/12/30 08:46:18;;;;;;;18.20;3.35;;;5.10;99.90;;;;;;4810403;29;20050;-62
2022/12/30 08:48:44;;;;;;;16.80;4.80;;;5.00;99.90;;;;;;4826384;29;20182;-63
2022/12/30 08:51:09;;;;;;;15.13;4.30;;;5.00;99.90;;;;;;4826330;29;20137;-63
2022/12/30 08:53:35;;;;;;;11.90;3.45;;;5.20;99.90;;;;;;4810152;29;20073;-62
2022/12/30 08:56:07;;;;;;;12.40;4.22;;;5.10;99.90;;;;;;4812373;29;20046;-62
2022/12/30 08:58:34;;;;;;;17.52;4.97;;;5.30;99.90;;;;;;4805826;29;20372;-63
2022/12/30 09:01:07;;;;;;;16.35;4.95;;;5.20;99.90;;;;;;4805273;29;20421;-63
2022/12/30 09:03:32;;;;;;;15.07;4.22;;;5.30;99.90;;;;;;4809941;29;20516;-63
2022/12/30 09:05:58;;;;;;;12.63;4.40;;;5.40;99.90;;;;;;4809323;29;20145;-63
2022/12/30 09:08:23;;;;;;;10.88;3.80;;;5.50;99.90;;;;;;4809196;29;20110;-65
2022/12/30 09:11:26;;;;;;;14.07;3.38;;;5.50;99.90;;;;;;4798856;29;20050;-64
2022/12/30 09:13:52;;;;;;;13.23;4.35;;;5.50;99.90;;;;;;4808691;29;20041;-63
2022/12/30 09:16:21;;;;;;;12.68;3.80;;;5.70;99.90;;;;;;4807392;29;20049;-63
2022/12/30 09:18:48;;;;;;;13.55;4.07;;;5.60;99.90;;;;;;4807684;29;20046;-63
2022/12/30 09:21:14;;;;;;;14.40;3.92;;;5.70;99.90;;;;;;4805069;29;20070;-63
2022/12/30 09:23:39;;;;;;;12.30;4.05;;;5.70;99.90;;;;;;4803036;29;20397;-64
2022/12/30 09:26:05;;;;;;;15.68;4.88;;;5.80;99.90;;;;;;4804840;29;20046;-63
2022/12/30 09:28:32;;;;;;;13.57;3.95;;;5.80;99.90;;;;;;4805077;29;20053;-64
2022/12/30 09:30:58;;;;;;;12.88;4.00;;;5.80;99.90;;;;;;4804237;29;20408;-64
2022/12/30 09:33:25;;;;;;;14.02;3.33;;;5.80;99.90;;;;;;4786542;29;20049;-65
2022/12/30 09:35:50;;;;;;;12.98;4.07;;;5.90;99.90;;;;;;4807106;29;20081;-63
2022/12/30 09:38:16;;;;;;;13.05;4.00;;;6.00;99.90;;;;;;4783576;30;20051;-63
2022/12/30 09:41:05;;;;;;;12.43;4.60;;;5.90;99.90;;;;;;4801909;29;20141;-64
2022/12/30 09:43:38;;;;;;;11.85;3.65;;;5.90;99.90;;;;;;4802259;29;20104;-63
2022/12/30 09:46:18;;;;;;;11.93;3.75;;;6.00;99.90;;;;;;4802343;29;20058;-62
2022/12/30 09:48:54;;;;;;;12.98;3.00;;;6.00;99.90;;;;;;4800493;29;20481;-66
2022/12/30 09:51:26;;;;;;;14.13;3.97;;;6.10;99.90;;;;;;4805389;29;20042;-64
2022/12/30 09:54:09;;;;;;;9.95;2.65;;;6.10;99.90;;;;;;4794756;29;20049;-63
2022/12/30 09:56:38;;;;;;;9.68;3.63;;;6.00;99.90;;;;;;4808314;29;20039;-63
2022/12/30 09:59:35;;;;;;;14.60;3.85;;;6.10;99.90;;;;;;4805401;29;20050;-63
2022/12/30 10:02:24;;;;;;;13.73;3.70;;;6.20;99.90;;;;;;4801730;29;20046;-63
2022/12/30 10:04:50;;;;;;;12.38;4.03;;;6.20;99.90;;;;;;4789044;29;20038;-65
2022/12/30 10:07:44;;;;;;;12.57;3.70;;;6.30;99.90;;;;;;4805589;29;20039;-63
2022/12/30 10:10:20;;;;;;;12.50;3.60;;;6.30;99.90;;;;;;4802439;29;20437;-63
2022/12/30 10:12:55;;;;;;;10.73;3.88;;;6.40;99.90;;;;;;4804853;29;20046;-63
2022/12/30 10:15:36;;;;;;;10.63;3.30;;;6.40;99.90;;;;;;4799630;29;20070;-63
2022/12/30 10:18:24;;;;;;;9.45;3.22;;;6.50;99.90;;;;;;4802983;29;20138;-63
2022/12/30 10:21:17;;;;;;;14.18;3.42;;;6.60;99.90;;;;;;4805535;29;20361;-63
2022/12/30 10:24:03;;;;;;;13.80;3.25;;;6.60;99.90;;;;;;4804342;29;20097;-63
2022/12/30 10:26:35;;;;;;;11.00;3.38;;;6.70;99.90;;;;;;4788166;29;20043;-63
2022/12/30 10:29:05;;;;;;;9.85;2.75;;;6.70;99.90;;;;;;4803491;29;20101;-63
2022/12/30 10:31:36;;;;;;;10.52;3.05;;;6.80;99.90;;;;;;4803800;29;20053;-63
2022/12/30 10:34:17;;;;;;;8.52;3.25;;;6.80;99.90;;;;;;4786817;29;20047;-64
2022/12/30 10:37:19;;;;;;;10.10;3.10;;;6.90;99.90;;;;;;4802834;29;20091;-64
2022/12/30 10:39:50;;;;;;;9.88;2.83;;;6.90;99.90;;;;;;4769709;29;20066;-63
2022/12/30 10:42:34;;;;;;;7.22;2.55;;;6.90;99.90;;;;;;4788929;29;20354;-63
2022/12/30 10:45:09;;;;;;;7.67;3.00;;;6.90;99.90;;;;;;4802398;29;20065;-63
2022/12/30 10:48:01;;;;;;;8.70;2.72;;;7.00;99.90;;;;;;4790452;29;20307;-63
2022/12/30 10:50:40;;;;;;;8.52;2.92;;;6.90;99.90;;;;;;4802594;29;20046;-63
2022/12/30 10:53:12;;;;;;;8.60;2.92;;;7.00;99.90;;;;;;4802984;29;20053;-64
2022/12/30 10:55:46;;;;;;;8.07;2.38;;;6.90;99.90;;;;;;4805281;29;20053;-63
2022/12/30 10:58:17;;;;;;;;;;;7.00;99.90;;;;;;4801881;29;20442;-66
2022/12/30 11:00:43;;;;;;;6.85;2.40;;;6.90;99.90;;;;;;4803432;29;20034;-66
2022/12/30 11:03:30;;;;;;;9.27;3.00;;;6.90;99.90;;;;;;4804797;29;20410;-64
2022/12/30 11:06:17;;;;;;;12.45;2.90;;;6.90;99.90;;;;;;4805552;29;20334;-61
2022/12/30 11:08:43;;;;;;;13.02;2.72;;;7.00;99.90;;;;;;4785126;29;20050;-64
2022/12/30 11:11:09;;;;;;;8.20;2.45;;;7.10;99.90;;;;;;4804341;29;20147;-63
2022/12/30 11:16:28;;;;;;;10.18;2.83;;;7.10;99.90;;;;;;4792725;29;20129;-62
2022/12/30 11:19:00;;;;;;;7.60;2.60;;;7.00;99.90;;;;;;4784197;29;20051;-63
2022/12/30 11:21:32;;;;;;;9.52;2.20;;;7.10;99.90;;;;;;4800418;29;20111;-64
2022/12/30 11:24:00;;;;;;;10.25;2.70;;;7.10;99.90;;;;;;4803193;29;20472;-63
2022/12/30 11:26:28;;;;;;;6.15;2.40;;;7.10;99.90;;;;;;4789993;29;20051;-64
2022/12/30 11:28:58;;;;;;;6.15;2.45;;;7.20;99.90;;;;;;4804842;29;20042;-64
2022/12/30 11:31:34;;;;;;;7.57;2.70;;;7.20;99.90;;;;;;4804242;29;20046;-63
2022/12/30 11:34:02;;;;;;;9.88;2.60;;;7.30;99.90;;;;;;4798740;29;20058;-65
2022/12/30 11:36:28;;;;;;;7.97;2.30;;;7.30;99.90;;;;;;4818232;29;20485;-63
2022/12/30 11:38:55;;;;;;;7.45;2.40;;;7.30;99.90;;;;;;4789766;29;20058;-63
2022/12/30 11:41:24;;;;;;;8.82;2.85;;;7.40;99.90;;;;;;4804058;29;20108;-62
2022/12/30 11:43:59;;;;;;;10.18;2.92;;;7.50;99.90;;;;;;4804073;29;20049;-62
2022/12/30 11:46:51;;;;;;;8.57;2.38;;;7.50;99.90;;;;;;4806865;29;20089;-62
2022/12/30 11:49:31;;;;;;;8.75;2.80;;;7.50;99.90;;;;;;4806793;29;20456;-63
2022/12/30 11:52:07;;;;;;;8.70;2.30;;;7.60;99.90;;;;;;4807029;29;20058;-63
2022/12/30 11:54:39;;;;;;;8.23;2.50;;;7.70;99.90;;;;;;4806454;29;20364;-65
2022/12/30 11:57:16;;;;;;;11.00;2.53;;;7.70;99.90;;;;;;4807509;29;20364;-63
2022/12/30 11:59:47;;;;;;;9.38;2.17;;;7.70;99.90;;;;;;4807487;29;20038;-66
2022/12/30 12:02:22;;;;;;;6.45;2.17;;;7.80;99.90;;;;;;4807764;29;20430;-63
2022/12/30 12:04:48;;;;;;;7.03;1.83;;;7.80;99.90;;;;;;4808219;29;20115;-63
2022/12/30 12:07:16;;;;;;;5.95;2.00;;;7.90;99.90;;;;;;4806297;29;20138;-65
2022/12/30 12:09:57;;;;;;;7.25;2.03;;;7.90;99.90;;;;;;4806795;29;20097;-65
2022/12/30 12:12:27;;;;;;;10.57;2.63;;;7.90;99.90;;;;;;4805289;29;20047;-65
2022/12/30 12:15:01;;;;;;;6.32;1.70;;;8.00;99.90;;;;;;4803717;29;20129;-65
2022/12/30 12:17:54;;;;;;;10.20;2.30;;;8.00;99.90;;;;;;4808269;29;20138;-65
2022/12/30 12:20:41;;;;;;;4.00;2.00;;;8.00;99.90;;;;;;4804813;29;20062;-64
2022/12/30 12:23:39;;;;;;;7.85;2.45;;;8.10;99.90;;;;;;4806653;29;20051;-63
2022/12/30 12:26:16;;;;;;;7.57;1.95;;;8.10;99.90;;;;;;4805563;29;20123;-63
2022/12/30 12:28:44;;;;;;;9.05;2.10;;;8.10;99.90;;;;;;4807063;29;20329;-65
2022/12/30 12:31:16;;;;;;;9.82;2.47;;;8.20;99.90;;;;;;4807457;29;20054;-62
2022/12/30 12:33:52;;;;;;;8.60;1.90;;;8.30;99.90;;;;;;4804390;29;20497;-64
2022/12/30 12:36:45;;;;;;;7.28;1.98;;;8.40;99.90;;;;;;4788969;29;20043;-62
2022/12/30 12:39:16;;;;;;;6.03;2.10;;;8.50;99.90;;;;;;4788399;29;20051;-63
2022/12/30 12:42:03;;;;;;;6.43;2.20;;;8.60;99.90;;;;;;4804849;29;20047;-67
2022/12/30 12:44:52;;;;;;;7.82;2.40;;;8.70;99.90;;;;;;4804966;29;20043;-66
2022/12/30 12:47:54;;;;;;;6.68;2.20;;;8.70;99.90;;;;;;4795534;29;20043;-62
2022/12/30 12:50:38;;;;;;;7.00;2.10;;;8.70;99.90;;;;;;4736929;29;20491;-64
2022/12/30 12:53:23;;;;;;;6.43;2.05;;;8.80;99.90;;;;;;4807947;29;20046;-62
2022/12/30 12:56:07;;;;;;;6.78;1.90;;;8.90;99.90;;;;;;4804967;29;20047;-64
2022/12/30 12:58:44;;;;;;;5.97;1.93;;;8.90;99.90;;;;;;4784942;29;20039;-62
2022/12/30 13:01:21;;;;;;;8.15;2.00;;;8.80;99.90;;;;;;4795757;29;20117;-63
2022/12/30 13:04:07;;;;;;;7.15;2.15;;;8.70;99.90;;;;;;4789900;29;20450;-63
2022/12/30 13:06:57;;;;;;;4.90;1.85;;;8.80;99.90;;;;;;4804616;29;20515;-64
2022/12/30 13:10:01;;;;;;;7.60;2.15;;;8.80;99.90;;;;;;4801434;29;20082;-61
2022/12/30 13:12:54;;;;;;;8.45;2.20;;;8.70;99.90;;;;;;4804475;29;20221;-64
2022/12/30 13:15:40;;;;;;;6.70;2.42;;;8.80;99.90;;;;;;4803410;29;20039;-63
2022/12/30 13:18:18;;;;;;;9.32;2.17;;;8.80;99.90;;;;;;4802254;29;20054;-63
2022/12/30 13:20:51;;;;;;;6.93;1.98;;;8.90;99.90;;;;;;4803296;29;20349;-63
2022/12/30 13:23:21;;;;;;;5.35;1.70;;;9.00;99.90;;;;;;4805195;29;20058;-63
2022/12/30 13:25:55;;;;;;;6.07;1.70;;;9.00;99.90;;;;;;4783125;29;20054;-63
2022/12/30 13:28:28;;;;;;;6.47;2.05;;;9.00;99.90;;;;;;4803121;29;20065;-64
2022/12/30 13:31:09;;;;;;;7.65;2.28;;;9.00;99.90;;;;;;4805688;29;20519;-63
2022/12/30 13:34:01;;;;;;;7.78;2.05;;;9.00;99.90;;;;;;4789994;29;20043;-65
2022/12/30 13:36:40;;;;;;;6.60;2.05;;;9.10;99.90;;;;;;4806151;29;20050;-62
2022/12/30 13:39:24;;;;;;;5.50;1.80;;;9.00;99.90;;;;;;4806704;29;20051;-64
2022/12/30 13:42:17;;;;;;;5.68;1.63;;;9.10;99.90;;;;;;4802208;29;20045;-64
2022/12/30 13:44:45;;;;;;;6.18;1.92;;;9.10;99.90;;;;;;4805019;29;20035;-63
2022/12/30 13:47:36;;;;;;;8.05;1.98;;;9.10;99.90;;;;;;4802640;29;20111;-65
2022/12/30 13:50:14;;;;;;;9.18;2.67;;;9.20;99.90;;;;;;4793378;29;20067;-64
2022/12/30 13:52:45;;;;;;;8.77;2.25;;;9.10;99.90;;;;;;4806054;29;20043;-62
2022/12/30 13:55:18;;;;;;;7.20;2.20;;;9.10;99.90;;;;;;4807146;29;20046;-64
2022/12/30 13:57:50;;;;;;;6.72;2.28;;;9.10;99.90;;;;;;4805366;29;20034;-62
2022/12/30 14:00:27;;;;;;;4.65;2.05;;;9.10;99.90;;;;;;4806676;29;20690;-62
2022/12/30 14:03:04;;;;;;;6.93;2.20;;;9.10;99.90;;;;;;4807027;29;20356;-61
2022/12/30 14:05:53;;;;;;;6.88;2.70;;;9.10;99.90;;;;;;4788778;29;20421;-61
2022/12/30 14:08:25;;;;;;;4.80;1.70;;;9.00;99.90;;;;;;4797790;29;20062;-63